createdAt,value
2023-02-28T00:03:17.920Z,0.29
2023-02-28T00:07:22.333Z,0.20
2023-02-28T00:11:25.574Z,0.18
2023-02-28T00:15:28.760Z,0.14
2023-02-28T00:19:31.934Z,0.12
2023-02-28T00:23:36.875Z,0.10
2023-02-28T00:27:41.725Z,0.09
2023-02-28T00:31:45.088Z,0.04
2023-02-28T00:35:49.641Z,0.00
2023-02-28T00:39:55.322Z,-0.05
2023-02-28T00:43:59.117Z,-0.10
2023-02-28T00:48:02.128Z,-0.09
2023-02-28T00:52:05.687Z,-0.05
2023-02-28T00:56:10.212Z,-0.12
2023-02-28T01:00:14.578Z,-0.12
2023-02-28T01:04:19.916Z,-0.10
2023-02-28T01:08:23.452Z,-0.10
2023-02-28T01:12:30.823Z,-0.12
2023-02-28T01:16:34.139Z,-0.13
2023-02-28T01:20:39.222Z,-0.14
2023-02-28T01:24:42.261Z,-0.14
2023-02-28T01:28:52.025Z,-0.14
2023-02-28T01:32:55.445Z,-0.14
2023-02-28T01:36:59.798Z,-0.08
2023-02-28T01:41:03.385Z,-0.12
2023-02-28T01:45:22.417Z,-0.13
2023-02-28T01:49:25.537Z,-0.12
2023-02-28T01:53:34.591Z,-0.13
2023-02-28T01:57:43.667Z,-0.06
2023-02-28T02:01:48.215Z,-0.03
2023-02-28T02:05:51.539Z,-0.01
2023-02-28T02:10:03.258Z,-0.03
2023-02-28T02:14:42.303Z,-0.00
2023-02-28T02:18:52.617Z,0.05
2023-02-28T02:23:27.954Z,0.04
2023-02-28T02:28:03.334Z,0.03
2023-02-28T02:32:24.796Z,-0.00
2023-02-28T02:36:35.354Z,0.00
2023-02-28T02:40:44.614Z,0.02
2023-02-28T02:44:52.238Z,0.06
2023-02-28T02:48:59.050Z,0.04
2023-02-28T02:53:06.302Z,-0.01
2023-02-28T02:57:15.803Z,-0.02
2023-02-28T03:01:29.426Z,-0.01
2023-02-28T03:05:40.394Z,-0.06
2023-02-28T03:09:52.686Z,-0.05
2023-02-28T03:14:17.700Z,-0.05
2023-02-28T03:18:27.337Z,-0.03
2023-02-28T03:22:50.593Z,-0.01
2023-02-28T03:27:01.519Z,-0.01
2023-02-28T03:31:13.091Z,-0.04
2023-02-28T03:35:22.891Z,-0.06
2023-02-28T03:39:31.976Z,-0.10
2023-02-28T03:43:53.004Z,-0.16
2023-02-28T03:47:59.770Z,-0.16
2023-02-28T03:52:06.203Z,-0.16
2023-02-28T03:56:15.572Z,-0.19
2023-02-28T04:00:23.467Z,-0.24
2023-02-28T04:04:27.084Z,-0.27
2023-02-28T04:08:30.107Z,-0.32
2023-02-28T04:12:33.159Z,-0.36
2023-02-28T04:16:39.948Z,-0.35
2023-02-28T04:20:43.115Z,-0.40
2023-02-28T04:24:46.270Z,-0.44
2023-02-28T04:28:49.402Z,-0.42
2023-02-28T04:32:53.802Z,-0.44
2023-02-28T04:37:12.445Z,-0.48
2023-02-28T04:41:16.732Z,-0.53
2023-02-28T04:45:19.778Z,-0.53
2023-02-28T04:49:24.239Z,-0.57
2023-02-28T04:53:27.358Z,-0.60
2023-02-28T04:57:31.039Z,-0.65
2023-02-28T05:01:37.376Z,-0.68
2023-02-28T05:05:41.756Z,-0.73
2023-02-28T05:09:44.824Z,-0.80
2023-02-28T05:13:48.357Z,-0.88
2023-02-28T05:17:51.459Z,-0.93
2023-02-28T05:21:57.520Z,-0.98
2023-02-28T05:26:00.796Z,-1.01
2023-02-28T05:30:20.427Z,-1.07
2023-02-28T05:34:24.024Z,-1.09
2023-02-28T05:38:28.557Z,-1.09
2023-02-28T05:42:31.840Z,-1.10
2023-02-28T05:46:34.938Z,-1.15
2023-02-28T05:50:38.064Z,-1.22
2023-02-28T05:54:42.569Z,-1.27
2023-02-28T05:58:45.664Z,-1.21
2023-02-28T06:02:48.669Z,-1.21
2023-02-28T06:06:52.240Z,-1.25
2023-02-28T06:10:56.578Z,-1.23
2023-02-28T06:14:59.676Z,-1.30
2023-02-28T06:19:05.762Z,-1.35
2023-02-28T06:23:09.082Z,-1.39
2023-02-28T06:27:13.499Z,-1.45
2023-02-28T06:31:19.266Z,-1.43
2023-02-28T06:35:22.503Z,-1.41
2023-02-28T06:39:25.893Z,-1.38
2023-02-28T06:43:32.576Z,-1.36
2023-02-28T06:47:35.714Z,-1.29
2023-02-28T06:51:40.526Z,-1.22
2023-02-28T06:55:43.626Z,-1.15
2023-02-28T06:59:47.984Z,-1.05
2023-02-28T07:03:53.365Z,-0.92
2023-02-28T07:07:56.389Z,-0.83
2023-02-28T07:12:00.182Z,-0.74
2023-02-28T07:16:07.072Z,-0.62
2023-02-28T07:20:11.184Z,-0.52
2023-02-28T07:24:16.794Z,-0.50
2023-02-28T07:28:19.901Z,-0.50
2023-02-28T07:32:24.707Z,-0.43
2023-02-28T07:36:28.100Z,-0.31
2023-02-28T07:40:31.334Z,-0.25
2023-02-28T07:44:34.705Z,-0.16
2023-02-28T07:48:39.491Z,-0.11
2023-02-28T07:52:43.029Z,-0.04
2023-02-28T07:56:46.290Z,0.04
2023-02-28T08:00:49.481Z,0.01
2023-02-28T08:04:53.992Z,0.10
2023-02-28T08:08:57.998Z,0.18
2023-02-28T08:13:01.040Z,0.19
2023-02-28T08:17:04.492Z,0.19
2023-02-28T08:21:12.490Z,0.29
2023-02-28T08:25:15.875Z,0.33
2023-02-28T08:29:18.898Z,0.44
2023-02-28T08:33:22.110Z,0.50
2023-02-28T08:37:26.693Z,0.64
2023-02-28T08:41:30.267Z,0.77
2023-02-28T08:45:33.696Z,0.90
2023-02-28T08:49:36.840Z,1.05
2023-02-28T08:53:42.378Z,1.23
2023-02-28T08:57:45.442Z,1.30
2023-02-28T09:01:48.449Z,1.42
2023-02-28T09:05:55.972Z,1.59
2023-02-28T09:10:00.342Z,1.62
2023-02-28T09:14:04.742Z,1.69
2023-02-28T09:18:07.781Z,1.80
2023-02-28T09:22:11.899Z,1.84
2023-02-28T09:26:22.182Z,1.85
2023-02-28T09:30:25.331Z,1.85
2023-02-28T09:34:28.850Z,1.93
2023-02-28T09:38:32.081Z,1.87
2023-02-28T09:42:36.917Z,1.87
2023-02-28T09:46:44.978Z,1.83
2023-02-28T09:50:50.211Z,1.80
2023-02-28T09:54:53.317Z,1.79
2023-02-28T09:59:02.782Z,1.79
2023-02-28T10:03:32.324Z,1.74
2023-02-28T10:07:48.362Z,1.74
2023-02-28T10:11:56.033Z,1.84
2023-02-28T10:16:06.180Z,2.00
2023-02-28T10:20:15.237Z,2.08
2023-02-28T10:24:23.280Z,2.28
2023-02-28T10:28:27.565Z,2.45
2023-02-28T10:32:34.569Z,2.52
2023-02-28T10:36:37.710Z,2.58
2023-02-28T10:40:40.721Z,2.66
2023-02-28T10:44:43.997Z,2.68
2023-02-28T10:49:05.356Z,2.77
2023-02-28T10:53:26.949Z,2.80
2023-02-28T10:57:33.553Z,2.80
2023-02-28T11:01:39.677Z,2.96
2023-02-28T11:05:45.656Z,3.04
2023-02-28T11:09:51.455Z,3.12
2023-02-28T11:13:56.761Z,3.23
2023-02-28T11:18:02.806Z,3.41
2023-02-28T11:22:09.320Z,3.52
2023-02-28T11:26:12.680Z,3.58
2023-02-28T11:30:36.128Z,3.64
2023-02-28T11:34:40.536Z,3.75
2023-02-28T11:38:45.413Z,3.74
2023-02-28T11:42:59.722Z,3.75
2023-02-28T11:47:10.331Z,3.92
2023-02-28T11:51:22.142Z,3.88
2023-02-28T11:55:30.151Z,3.86
2023-02-28T11:59:50.101Z,3.87
2023-02-28T12:04:05.407Z,3.83
2023-02-28T12:08:25.301Z,3.85
2023-02-28T12:12:41.097Z,3.87
2023-02-28T12:17:02.091Z,3.98
2023-02-28T12:21:13.576Z,4.15
2023-02-28T12:25:48.075Z,4.27
2023-02-28T12:29:59.106Z,4.30
2023-02-28T12:34:07.174Z,4.20
2023-02-28T12:38:14.994Z,4.17
2023-02-28T12:42:25.222Z,4.22
2023-02-28T12:46:34.864Z,4.28
2023-02-28T12:50:39.418Z,4.37
2023-02-28T12:54:49.358Z,4.45
2023-02-28T12:58:56.930Z,4.42
2023-02-28T13:03:33.217Z,4.51
2023-02-28T13:07:58.224Z,4.52
2023-02-28T13:12:01.437Z,4.62
2023-02-28T13:16:08.002Z,4.65
2023-02-28T13:20:19.937Z,4.68
2023-02-28T13:24:45.777Z,4.71
2023-02-28T13:29:23.960Z,4.65
2023-02-28T13:33:30.172Z,4.59
2023-02-28T13:37:39.230Z,4.57
2023-02-28T13:41:52.765Z,4.55
2023-02-28T13:46:13.146Z,4.65
2023-02-28T13:50:23.148Z,4.71
2023-02-28T13:54:46.962Z,4.69
2023-02-28T13:58:57.121Z,4.72
2023-02-28T14:03:13.730Z,4.75
2023-02-28T14:07:24.351Z,4.71
2023-02-28T14:11:32.313Z,4.84
2023-02-28T14:15:58.889Z,4.86
2023-02-28T14:20:04.201Z,4.76
2023-02-28T14:24:33.168Z,4.76
2023-02-28T14:28:52.934Z,4.70
2023-02-28T14:33:12.775Z,4.74
2023-02-28T14:37:21.515Z,4.60
2023-02-28T14:41:30.778Z,4.62
2023-02-28T14:45:35.979Z,4.62
2023-02-28T14:49:46.605Z,4.59
2023-02-28T14:53:52.917Z,4.59
2023-02-28T14:57:58.166Z,4.55
2023-02-28T15:02:23.238Z,4.50
2023-02-28T15:06:29.004Z,4.50
2023-02-28T15:10:34.272Z,4.52
2023-02-28T15:14:40.011Z,4.48
2023-02-28T15:18:49.148Z,4.47
2023-02-28T15:22:58.217Z,4.48
2023-02-28T15:27:04.780Z,4.41
2023-02-28T15:31:23.908Z,4.43
2023-02-28T15:35:31.354Z,4.35
2023-02-28T15:39:50.838Z,4.32
2023-02-28T15:44:28.043Z,4.33
2023-02-28T15:48:33.284Z,4.30
2023-02-28T15:52:41.749Z,4.26
2023-02-28T15:56:49.412Z,4.30
2023-02-28T16:01:06.027Z,4.30
2023-02-28T16:05:29.272Z,4.38
2023-02-28T16:09:35.259Z,4.45
2023-02-28T16:13:40.098Z,4.50
2023-02-28T16:17:43.258Z,4.52
2023-02-28T16:21:46.501Z,4.52
2023-02-28T16:25:49.540Z,4.54
2023-02-28T16:29:55.537Z,4.54
2023-02-28T16:33:59.048Z,4.53
2023-02-28T16:38:02.626Z,4.53
2023-02-28T16:42:05.897Z,4.52
2023-02-28T16:46:13.072Z,4.47
2023-02-28T16:50:19.451Z,4.44
2023-02-28T16:54:22.704Z,4.40
2023-02-28T16:58:27.470Z,4.57
2023-02-28T17:02:32.122Z,4.54
2023-02-28T17:06:35.217Z,4.46
2023-02-28T17:10:38.374Z,4.32
2023-02-28T17:14:41.419Z,4.23
2023-02-28T17:18:46.427Z,4.18
2023-02-28T17:22:49.421Z,4.12
2023-02-28T17:26:52.569Z,4.03
2023-02-28T17:30:55.805Z,3.99
2023-02-28T17:35:00.260Z,3.96
2023-02-28T17:39:03.714Z,3.90
2023-02-28T17:43:07.052Z,3.83
2023-02-28T17:47:14.027Z,3.72
2023-02-28T17:51:19.852Z,3.56
2023-02-28T17:55:22.837Z,3.42
2023-02-28T17:59:25.902Z,3.32
2023-02-28T18:03:29.128Z,3.24
2023-02-28T18:07:33.593Z,3.19
2023-02-28T18:11:44.765Z,3.12
2023-02-28T18:15:48.414Z,3.07
2023-02-28T18:19:52.473Z,3.06
2023-02-28T18:23:57.039Z,3.04
2023-02-28T18:28:00.034Z,3.02
2023-02-28T18:32:03.843Z,3.04
2023-02-28T18:36:07.792Z,3.06
2023-02-28T18:40:15.138Z,3.08
2023-02-28T18:44:20.387Z,3.05
2023-02-28T18:48:24.458Z,3.02
2023-02-28T18:52:27.438Z,2.98
2023-02-28T18:56:32.147Z,2.92
2023-02-28T19:00:35.858Z,2.85
2023-02-28T19:04:41.874Z,2.79
2023-02-28T19:08:44.898Z,2.72
2023-02-28T19:12:49.451Z,2.66
2023-02-28T19:16:52.871Z,2.58
2023-02-28T19:20:56.151Z,2.49
2023-02-28T19:24:59.151Z,2.44
2023-02-28T19:29:05.521Z,2.39
2023-02-28T19:33:08.550Z,2.33
2023-02-28T19:37:12.137Z,2.30
2023-02-28T19:41:16.969Z,2.24
2023-02-28T19:45:21.447Z,2.18
2023-02-28T19:49:26.009Z,2.12
2023-02-28T19:53:30.659Z,2.08
2023-02-28T19:57:33.743Z,2.03
2023-02-28T20:01:38.585Z,1.99
2023-02-28T20:05:41.557Z,1.94
2023-02-28T20:09:45.720Z,1.88
2023-02-28T20:13:48.766Z,1.84
2023-02-28T20:17:53.610Z,1.77
2023-02-28T20:21:57.210Z,1.74
2023-02-28T20:26:00.961Z,1.68
2023-02-28T20:30:04.556Z,1.64
2023-02-28T20:34:09.717Z,1.58
2023-02-28T20:38:13.253Z,1.53
2023-02-28T20:42:16.550Z,1.47
2023-02-28T20:46:19.656Z,1.45
2023-02-28T20:50:24.261Z,1.40
2023-02-28T20:54:28.690Z,1.35
2023-02-28T20:58:34.120Z,1.31
2023-02-28T21:02:37.267Z,1.24
2023-02-28T21:06:46.450Z,1.20
2023-02-28T21:10:49.414Z,1.15
2023-02-28T21:14:52.472Z,1.11
2023-02-28T21:18:55.625Z,1.06
2023-02-28T21:23:00.331Z,1.01
2023-02-28T21:27:03.338Z,0.96
2023-02-28T21:31:10.314Z,0.91
2023-02-28T21:35:13.361Z,0.87
2023-02-28T21:39:19.566Z,0.86
2023-02-28T21:43:22.741Z,0.81
2023-02-28T21:47:25.798Z,0.77
2023-02-28T21:51:31.401Z,0.71
2023-02-28T21:55:36.934Z,0.67
2023-02-28T21:59:39.898Z,0.66
2023-02-28T22:03:43.541Z,0.61
2023-02-28T22:07:46.522Z,0.58
2023-02-28T22:11:51.429Z,0.56
2023-02-28T22:15:54.414Z,0.54
2023-02-28T22:19:57.496Z,0.51
2023-02-28T22:24:01.106Z,0.47
2023-02-28T22:28:11.955Z,0.46
2023-02-28T22:32:15.594Z,0.46
2023-02-28T22:36:21.049Z,0.44
2023-02-28T22:40:24.417Z,0.42
2023-02-28T22:44:28.898Z,0.34
2023-02-28T22:48:32.304Z,0.30
2023-02-28T22:52:35.358Z,0.22
2023-02-28T22:56:38.347Z,0.18
2023-02-28T23:00:42.913Z,0.17
2023-02-28T23:04:45.932Z,0.18
2023-02-28T23:08:49.596Z,0.18
2023-02-28T23:12:53.294Z,0.19
2023-02-28T23:16:57.734Z,0.17
2023-02-28T23:21:00.920Z,0.15
2023-02-28T23:25:04.746Z,0.12
2023-02-28T23:29:07.780Z,0.09
2023-02-28T23:33:12.295Z,0.08
2023-02-28T23:37:15.299Z,0.05
2023-02-28T23:41:19.845Z,0.04
2023-02-28T23:45:22.849Z,-0.01
2023-02-28T23:49:27.475Z,-0.07
2023-02-28T23:53:33.848Z,-0.12
2023-02-28T23:57:36.902Z,-0.17
